sensor_id;sensor_type;location;lat;lon;timestamp;temperature;humidity
21115;DHT22;10715;48.546;9.896;2022-11-15T00:00:47;5.80;99.90
21115;DHT22;10715;48.546;9.896;2022-11-15T00:03:17;5.80;99.90
21115;DHT22;10715;48.546;9.896;2022-11-15T00:05:43;5.80;99.90
21115;DHT22;10715;48.546;9.896;2022-11-15T00:08:10;5.80;99.90
21115;DHT22;10715;48.546;9.896;2022-11-15T00:10:36;5.80;99.90
21115;DHT22;10715;48.546;9.896;2022-11-15T00:13:06;5.70;99.90
21115;DHT22;10715;48.546;9.896;2022-11-15T00:15:37;5.70;99.90
21115;DHT22;10715;48.546;9.896;2022-11-15T00:18:04;5.70;99.90
21115;DHT22;10715;48.546;9.896;2022-11-15T00:20:30;5.70;99.90
21115;DHT22;10715;48.546;9.896;2022-11-15T00:22:55;5.70;99.90
21115;DHT22;10715;48.546;9.896;2022-11-15T00:25:21;5.70;99.90
21115;DHT22;10715;48.546;9.896;2022-11-15T00:27:47;5.70;99.90
21115;DHT22;10715;48.546;9.896;2022-11-15T00:30:12;5.70;99.90
21115;DHT22;10715;48.546;9.896;2022-11-15T00:32:38;5.60;99.90
21115;DHT22;10715;48.546;9.896;2022-11-15T00:35:04;5.60;99.90
21115;DHT22;10715;48.546;9.896;2022-11-15T00:37:30;5.60;99.90
21115;DHT22;10715;48.546;9.896;2022-11-15T00:39:56;5.60;99.90
21115;DHT22;10715;48.546;9.896;2022-11-15T00:42:21;5.60;99.90
21115;DHT22;10715;48.546;9.896;2022-11-15T00:44:47;5.60;99.90
21115;DHT22;10715;48.546;9.896;2022-11-15T00:47:13;5.60;99.90
21115;DHT22;10715;48.546;9.896;2022-11-15T00:49:38;5.60;99.90
21115;DHT22;10715;48.546;9.896;2022-11-15T00:52:04;5.60;99.90
21115;DHT22;10715;48.546;9.896;2022-11-15T00:54:30;5.60;99.90
21115;DHT22;10715;48.546;9.896;2022-11-15T00:56:55;5.60;99.90
21115;DHT22;10715;48.546;9.896;2022-11-15T00:59:21;5.60;99.90
21115;DHT22;10715;48.546;9.896;2022-11-15T01:01:47;5.60;99.90
21115;DHT22;10715;48.546;9.896;2022-11-15T01:04:13;5.50;99.90
21115;DHT22;10715;48.546;9.896;2022-11-15T01:06:39;5.50;99.90
21115;DHT22;10715;48.546;9.896;2022-11-15T01:09:05;5.50;99.90
21115;DHT22;10715;48.546;9.896;2022-11-15T01:11:30;5.50;99.90
21115;DHT22;10715;48.546;9.896;2022-11-15T01:13:56;5.50;99.90
21115;DHT22;10715;48.546;9.896;2022-11-15T01:16:22;5.40;99.90
21115;DHT22;10715;48.546;9.896;2022-11-15T01:18:47;5.50;99.90
21115;DHT22;10715;48.546;9.896;2022-11-15T01:21:16;5.50;99.90
21115;DHT22;10715;48.546;9.896;2022-11-15T01:23:42;5.40;99.90
21115;DHT22;10715;48.546;9.896;2022-11-15T01:26:11;5.40;99.90
21115;DHT22;10715;48.546;9.896;2022-11-15T01:28:38;5.40;99.90
21115;DHT22;10715;48.546;9.896;2022-11-15T01:31:07;5.40;99.90
21115;DHT22;10715;48.546;9.896;2022-11-15T01:33:35;5.40;99.90
21115;DHT22;10715;48.546;9.896;2022-11-15T01:36:07;5.30;99.90
21115;DHT22;10715;48.546;9.896;2022-11-15T01:38:33;5.30;99.90
21115;DHT22;10715;48.546;9.896;2022-11-15T01:40:59;5.10;99.90
21115;DHT22;10715;48.546;9.896;2022-11-15T01:43:43;5.00;99.90
21115;DHT22;10715;48.546;9.896;2022-11-15T01:48:47;4.70;99.90
21115;DHT22;10715;48.546;9.896;2022-11-15T01:51:15;4.60;99.90
21115;DHT22;10715;48.546;9.896;2022-11-15T01:53:45;4.50;99.90
21115;DHT22;10715;48.546;9.896;2022-11-15T01:56:15;4.40;99.90
21115;DHT22;10715;48.546;9.896;2022-11-15T01:58:43;4.30;99.90
21115;DHT22;10715;48.546;9.896;2022-11-15T02:01:10;4.20;99.90
21115;DHT22;10715;48.546;9.896;2022-11-15T02:06:25;4.00;99.90
21115;DHT22;10715;48.546;9.896;2022-11-15T02:08:52;4.00;99.90
21115;DHT22;10715;48.546;9.896;2022-11-15T02:11:17;3.90;99.90
21115;DHT22;10715;48.546;9.896;2022-11-15T02:13:43;3.90;99.90
21115;DHT22;10715;48.546;9.896;2022-11-15T02:18:52;3.70;99.90
21115;DHT22;10715;48.546;9.896;2022-11-15T02:37:47;3.40;99.90
21115;DHT22;10715;48.546;9.896;2022-11-15T02:43:13;3.20;99.90
21115;DHT22;10715;48.546;9.896;2022-11-15T02:46:18;3.20;99.90
21115;DHT22;10715;48.546;9.896;2022-11-15T02:48:47;3.20;99.90
21115;DHT22;10715;48.546;9.896;2022-11-15T02:51:14;3.20;99.90
21115;DHT22;10715;48.546;9.896;2022-11-15T02:53:41;3.20;99.90
21115;DHT22;10715;48.546;9.896;2022-11-15T02:56:08;3.10;99.90
21115;DHT22;10715;48.546;9.896;2022-11-15T03:02:00;3.10;99.90
21115;DHT22;10715;48.546;9.896;2022-11-15T03:04:38;3.00;99.90
21115;DHT22;10715;48.546;9.896;2022-11-15T03:07:10;2.90;99.90
21115;DHT22;10715;48.546;9.896;2022-11-15T03:10:09;2.90;99.90
21115;DHT22;10715;48.546;9.896;2022-11-15T03:12:46;2.90;99.90
21115;DHT22;10715;48.546;9.896;2022-11-15T03:18:04;2.80;99.90
21115;DHT22;10715;48.546;9.896;2022-11-15T03:20:32;2.70;99.90
21115;DHT22;10715;48.546;9.896;2022-11-15T03:23:09;2.70;99.90
21115;DHT22;10715;48.546;9.896;2022-11-15T03:25:38;2.70;99.90
21115;DHT22;10715;48.546;9.896;2022-11-15T03:28:06;2.60;99.90
21115;DHT22;10715;48.546;9.896;2022-11-15T03:30:35;2.60;99.90
21115;DHT22;10715;48.546;9.896;2022-11-15T03:33:03;2.50;99.90
21115;DHT22;10715;48.546;9.896;2022-11-15T03:35:35;2.50;99.90
21115;DHT22;10715;48.546;9.896;2022-11-15T03:38:25;2.50;99.90
21115;DHT22;10715;48.546;9.896;2022-11-15T03:41:00;2.40;99.90
21115;DHT22;10715;48.546;9.896;2022-11-15T03:46:13;2.30;99.90
21115;DHT22;10715;48.546;9.896;2022-11-15T03:48:43;2.30;99.90
21115;DHT22;10715;48.546;9.896;2022-11-15T03:51:12;2.30;99.90
21115;DHT22;10715;48.546;9.896;2022-11-15T03:53:40;2.40;99.90
21115;DHT22;10715;48.546;9.896;2022-11-15T03:56:06;2.40;99.90
21115;DHT22;10715;48.546;9.896;2022-11-15T03:58:31;2.40;99.90
21115;DHT22;10715;48.546;9.896;2022-11-15T04:00:57;2.50;99.90
21115;DHT22;10715;48.546;9.896;2022-11-15T04:03:25;2.40;99.90
21115;DHT22;10715;48.546;9.896;2022-11-15T04:05:51;2.40;99.90
21115;DHT22;10715;48.546;9.896;2022-11-15T04:08:17;2.30;99.90
21115;DHT22;10715;48.546;9.896;2022-11-15T04:10:42;2.30;99.90
21115;DHT22;10715;48.546;9.896;2022-11-15T04:13:08;2.20;99.90
21115;DHT22;10715;48.546;9.896;2022-11-15T04:15:34;2.20;99.90
21115;DHT22;10715;48.546;9.896;2022-11-15T04:18:00;2.20;99.90
21115;DHT22;10715;48.546;9.896;2022-11-15T04:20:28;2.20;99.90
21115;DHT22;10715;48.546;9.896;2022-11-15T04:23:23;2.20;99.90
21115;DHT22;10715;48.546;9.896;2022-11-15T04:26:13;2.30;99.90
21115;DHT22;10715;48.546;9.896;2022-11-15T04:28:40;2.30;99.90
21115;DHT22;10715;48.546;9.896;2022-11-15T04:31:26;2.40;99.90
21115;DHT22;10715;48.546;9.896;2022-11-15T04:33:52;2.50;99.90
21115;DHT22;10715;48.546;9.896;2022-11-15T04:36:18;2.50;99.90
21115;DHT22;10715;48.546;9.896;2022-11-15T04:39:03;2.60;99.90
21115;DHT22;10715;48.546;9.896;2022-11-15T04:41:29;2.70;99.90
21115;DHT22;10715;48.546;9.896;2022-11-15T04:43:55;2.70;99.90
21115;DHT22;10715;48.546;9.896;2022-11-15T04:46:21;2.80;99.90
21115;DHT22;10715;48.546;9.896;2022-11-15T04:48:47;2.90;99.90
21115;DHT22;10715;48.546;9.896;2022-11-15T04:51:13;2.90;99.90
21115;DHT22;10715;48.546;9.896;2022-11-15T04:53:39;2.90;99.90
21115;DHT22;10715;48.546;9.896;2022-11-15T04:56:04;2.90;99.90
21115;DHT22;10715;48.546;9.896;2022-11-15T04:58:30;3.00;99.90
21115;DHT22;10715;48.546;9.896;2022-11-15T05:00:56;3.00;99.90
21115;DHT22;10715;48.546;9.896;2022-11-15T05:03:22;3.00;99.90
21115;DHT22;10715;48.546;9.896;2022-11-15T05:06:06;3.10;99.90
21115;DHT22;10715;48.546;9.896;2022-11-15T05:08:32;3.10;99.90
21115;DHT22;10715;48.546;9.896;2022-11-15T05:10:57;3.10;99.90
21115;DHT22;10715;48.546;9.896;2022-11-15T05:13:23;3.10;99.90
21115;DHT22;10715;48.546;9.896;2022-11-15T05:15:49;3.20;99.90
21115;DHT22;10715;48.546;9.896;2022-11-15T05:18:15;3.20;99.90
21115;DHT22;10715;48.546;9.896;2022-11-15T05:20:40;3.20;99.90
21115;DHT22;10715;48.546;9.896;2022-11-15T05:23:06;3.20;99.90
21115;DHT22;10715;48.546;9.896;2022-11-15T05:25:32;3.20;99.90
21115;DHT22;10715;48.546;9.896;2022-11-15T05:27:58;3.20;99.90
21115;DHT22;10715;48.546;9.896;2022-11-15T05:30:24;3.20;99.90
21115;DHT22;10715;48.546;9.896;2022-11-15T05:32:50;3.20;99.90
21115;DHT22;10715;48.546;9.896;2022-11-15T05:35:23;3.20;99.90
21115;DHT22;10715;48.546;9.896;2022-11-15T05:37:50;3.20;99.90
21115;DHT22;10715;48.546;9.896;2022-11-15T05:40:16;3.20;99.90
21115;DHT22;10715;48.546;9.896;2022-11-15T05:42:42;3.20;99.90
21115;DHT22;10715;48.546;9.896;2022-11-15T05:45:08;3.20;99.90
21115;DHT22;10715;48.546;9.896;2022-11-15T05:47:36;3.30;99.90
21115;DHT22;10715;48.546;9.896;2022-11-15T05:50:03;3.30;99.90
21115;DHT22;10715;48.546;9.896;2022-11-15T05:52:31;3.30;99.90
21115;DHT22;10715;48.546;9.896;2022-11-15T05:54:58;3.30;99.90
21115;DHT22;10715;48.546;9.896;2022-11-15T05:57:24;3.30;99.90
21115;DHT22;10715;48.546;9.896;2022-11-15T05:59:51;3.30;99.90
21115;DHT22;10715;48.546;9.896;2022-11-15T06:02:17;3.30;99.90
21115;DHT22;10715;48.546;9.896;2022-11-15T06:04:42;3.30;99.90
21115;DHT22;10715;48.546;9.896;2022-11-15T06:07:08;3.30;99.90
21115;DHT22;10715;48.546;9.896;2022-11-15T06:09:34;3.30;99.90
21115;DHT22;10715;48.546;9.896;2022-11-15T06:11:59;3.30;99.90
21115;DHT22;10715;48.546;9.896;2022-11-15T06:14:25;3.40;99.90
21115;DHT22;10715;48.546;9.896;2022-11-15T06:16:51;3.30;99.90
21115;DHT22;10715;48.546;9.896;2022-11-15T06:19:16;3.40;99.90
21115;DHT22;10715;48.546;9.896;2022-11-15T06:21:42;3.40;99.90
21115;DHT22;10715;48.546;9.896;2022-11-15T06:24:08;3.40;99.90
21115;DHT22;10715;48.546;9.896;2022-11-15T06:26:33;3.40;99.90
21115;DHT22;10715;48.546;9.896;2022-11-15T06:28:59;3.40;99.90
21115;DHT22;10715;48.546;9.896;2022-11-15T06:31:25;3.40;99.90
21115;DHT22;10715;48.546;9.896;2022-11-15T06:33:50;3.40;99.90
21115;DHT22;10715;48.546;9.896;2022-11-15T06:36:16;3.50;99.90
21115;DHT22;10715;48.546;9.896;2022-11-15T06:38:43;3.50;99.90
21115;DHT22;10715;48.546;9.896;2022-11-15T06:41:11;3.40;99.90
21115;DHT22;10715;48.546;9.896;2022-11-15T06:43:37;3.40;99.90
21115;DHT22;10715;48.546;9.896;2022-11-15T06:46:04;3.30;99.90
21115;DHT22;10715;48.546;9.896;2022-11-15T06:48:31;3.30;99.90
21115;DHT22;10715;48.546;9.896;2022-11-15T06:50:59;3.20;99.90
21115;DHT22;10715;48.546;9.896;2022-11-15T06:53:25;3.20;99.90
21115;DHT22;10715;48.546;9.896;2022-11-15T06:55:52;3.10;99.90
21115;DHT22;10715;48.546;9.896;2022-11-15T06:58:17;3.10;99.90
21115;DHT22;10715;48.546;9.896;2022-11-15T07:00:43;3.10;99.90
21115;DHT22;10715;48.546;9.896;2022-11-15T07:03:09;3.00;99.90
21115;DHT22;10715;48.546;9.896;2022-11-15T07:05:35;3.00;99.90
21115;DHT22;10715;48.546;9.896;2022-11-15T07:08:01;3.00;99.90
21115;DHT22;10715;48.546;9.896;2022-11-15T07:10:27;3.00;99.90
21115;DHT22;10715;48.546;9.896;2022-11-15T07:12:54;3.00;99.90
21115;DHT22;10715;48.546;9.896;2022-11-15T07:15:24;3.00;99.90
21115;DHT22;10715;48.546;9.896;2022-11-15T07:17:51;3.00;99.90
21115;DHT22;10715;48.546;9.896;2022-11-15T07:20:17;3.10;99.90
21115;DHT22;10715;48.546;9.896;2022-11-15T07:22:43;3.10;99.90
21115;DHT22;10715;48.546;9.896;2022-11-15T07:25:12;3.10;99.90
21115;DHT22;10715;48.546;9.896;2022-11-15T07:27:38;3.20;99.90
21115;DHT22;10715;48.546;9.896;2022-11-15T07:30:04;3.20;99.90
21115;DHT22;10715;48.546;9.896;2022-11-15T07:32:30;3.30;99.90
21115;DHT22;10715;48.546;9.896;2022-11-15T07:34:56;3.30;99.90
21115;DHT22;10715;48.546;9.896;2022-11-15T07:37:22;3.30;99.90
21115;DHT22;10715;48.546;9.896;2022-11-15T07:39:47;3.40;99.90
21115;DHT22;10715;48.546;9.896;2022-11-15T07:42:13;3.50;99.90
21115;DHT22;10715;48.546;9.896;2022-11-15T07:44:57;3.50;99.90
21115;DHT22;10715;48.546;9.896;2022-11-15T07:47:23;3.50;99.90
21115;DHT22;10715;48.546;9.896;2022-11-15T07:49:48;3.60;99.90
21115;DHT22;10715;48.546;9.896;2022-11-15T07:52:14;3.60;99.90
21115;DHT22;10715;48.546;9.896;2022-11-15T07:54:40;3.60;99.90
21115;DHT22;10715;48.546;9.896;2022-11-15T07:57:05;3.70;99.90
21115;DHT22;10715;48.546;9.896;2022-11-15T07:59:32;3.70;99.90
21115;DHT22;10715;48.546;9.896;2022-11-15T08:01:58;3.80;99.90
21115;DHT22;10715;48.546;9.896;2022-11-15T08:04:24;3.80;99.90
21115;DHT22;10715;48.546;9.896;2022-11-15T08:06:50;3.90;99.90
21115;DHT22;10715;48.546;9.896;2022-11-15T08:09:15;3.90;99.90
21115;DHT22;10715;48.546;9.896;2022-11-15T08:11:41;4.00;99.90
21115;DHT22;10715;48.546;9.896;2022-11-15T08:14:07;4.00;99.90
21115;DHT22;10715;48.546;9.896;2022-11-15T08:16:32;4.10;99.90
21115;DHT22;10715;48.546;9.896;2022-11-15T08:18:58;4.20;99.90
21115;DHT22;10715;48.546;9.896;2022-11-15T08:21:24;4.20;99.90
21115;DHT22;10715;48.546;9.896;2022-11-15T08:23:50;4.30;99.90
21115;DHT22;10715;48.546;9.896;2022-11-15T08:26:15;4.40;99.90
21115;DHT22;10715;48.546;9.896;2022-11-15T08:28:42;4.50;99.90
21115;DHT22;10715;48.546;9.896;2022-11-15T08:31:14;4.50;99.90
21115;DHT22;10715;48.546;9.896;2022-11-15T08:33:41;4.60;99.90
21115;DHT22;10715;48.546;9.896;2022-11-15T08:36:10;4.60;99.90
21115;DHT22;10715;48.546;9.896;2022-11-15T08:38:37;4.70;99.90
21115;DHT22;10715;48.546;9.896;2022-11-15T08:41:04;4.80;99.90
21115;DHT22;10715;48.546;9.896;2022-11-15T08:43:31;4.80;99.90
21115;DHT22;10715;48.546;9.896;2022-11-15T08:45:57;4.90;99.90
21115;DHT22;10715;48.546;9.896;2022-11-15T08:48:23;5.00;99.90
21115;DHT22;10715;48.546;9.896;2022-11-15T08:50:52;5.10;99.90
21115;DHT22;10715;48.546;9.896;2022-11-15T08:53:18;5.20;99.90
21115;DHT22;10715;48.546;9.896;2022-11-15T08:55:44;5.30;99.90
21115;DHT22;10715;48.546;9.896;2022-11-15T08:58:09;5.40;99.90
21115;DHT22;10715;48.546;9.896;2022-11-15T09:00:35;5.60;99.90
21115;DHT22;10715;48.546;9.896;2022-11-15T09:03:04;5.80;99.90
21115;DHT22;10715;48.546;9.896;2022-11-15T09:05:31;6.00;99.90
21115;DHT22;10715;48.546;9.896;2022-11-15T09:07:56;6.30;99.90
21115;DHT22;10715;48.546;9.896;2022-11-15T09:10:22;6.70;99.90
21115;DHT22;10715;48.546;9.896;2022-11-15T09:12:48;7.10;99.90
21115;DHT22;10715;48.546;9.896;2022-11-15T09:15:15;7.50;99.90
21115;DHT22;10715;48.546;9.896;2022-11-15T09:17:41;7.90;99.90
21115;DHT22;10715;48.546;9.896;2022-11-15T09:20:08;8.20;99.90
21115;DHT22;10715;48.546;9.896;2022-11-15T09:22:34;8.50;99.90
21115;DHT22;10715;48.546;9.896;2022-11-15T09:25:02;8.80;99.90
21115;DHT22;10715;48.546;9.896;2022-11-15T09:27:29;9.80;99.90
21115;DHT22;10715;48.546;9.896;2022-11-15T09:29:55;11.90;99.90
21115;DHT22;10715;48.546;9.896;2022-11-15T09:32:21;14.50;99.90
21115;DHT22;10715;48.546;9.896;2022-11-15T09:34:49;17.30;99.90
21115;DHT22;10715;48.546;9.896;2022-11-15T09:37:15;19.10;99.90
21115;DHT22;10715;48.546;9.896;2022-11-15T09:39:41;20.00;99.90
21115;DHT22;10715;48.546;9.896;2022-11-15T09:53:03;22.20;92.30
21115;DHT22;10715;48.546;9.896;2022-11-15T09:55:40;22.30;90.70
21115;DHT22;10715;48.546;9.896;2022-11-15T10:01:48;19.80;92.50
21115;DHT22;10715;48.546;9.896;2022-11-15T10:04:15;18.10;94.10
21115;DHT22;10715;48.546;9.896;2022-11-15T10:06:51;16.40;97.00
21115;DHT22;10715;48.546;9.896;2022-11-15T10:09:27;15.10;99.90
21115;DHT22;10715;48.546;9.896;2022-11-15T10:11:55;14.20;99.90
21115;DHT22;10715;48.546;9.896;2022-11-15T10:14:23;13.60;99.90
21115;DHT22;10715;48.546;9.896;2022-11-15T10:17:20;13.10;99.90
21115;DHT22;10715;48.546;9.896;2022-11-15T10:30:21;12.40;99.90
21115;DHT22;10715;48.546;9.896;2022-11-15T10:32:48;12.70;99.90
21115;DHT22;10715;48.546;9.896;2022-11-15T10:35:21;12.90;99.90
21115;DHT22;10715;48.546;9.896;2022-11-15T10:37:48;13.10;99.90
21115;DHT22;10715;48.546;9.896;2022-11-15T10:40:20;13.20;99.90
21115;DHT22;10715;48.546;9.896;2022-11-15T10:42:47;13.30;99.90
21115;DHT22;10715;48.546;9.896;2022-11-15T10:45:25;13.50;99.90
21115;DHT22;10715;48.546;9.896;2022-11-15T10:47:51;13.40;99.90
21115;DHT22;10715;48.546;9.896;2022-11-15T10:50:31;13.20;99.90
21115;DHT22;10715;48.546;9.896;2022-11-15T10:52:58;13.10;99.90
21115;DHT22;10715;48.546;9.896;2022-11-15T10:55:30;13.20;99.90
21115;DHT22;10715;48.546;9.896;2022-11-15T10:58:04;13.30;99.90
21115;DHT22;10715;48.546;9.896;2022-11-15T11:00:34;13.40;99.90
21115;DHT22;10715;48.546;9.896;2022-11-15T11:03:04;13.60;99.90
21115;DHT22;10715;48.546;9.896;2022-11-15T11:05:38;13.80;99.90
21115;DHT22;10715;48.546;9.896;2022-11-15T11:10:38;14.60;99.90
21115;DHT22;10715;48.546;9.896;2022-11-15T11:13:24;14.80;99.90
21115;DHT22;10715;48.546;9.896;2022-11-15T11:21:51;14.60;99.90
21115;DHT22;10715;48.546;9.896;2022-11-15T11:24:51;14.20;99.90
21115;DHT22;10715;48.546;9.896;2022-11-15T11:36:14;12.70;99.90
21115;DHT22;10715;48.546;9.896;2022-11-15T11:44:41;12.20;99.90
21115;DHT22;10715;48.546;9.896;2022-11-15T11:47:21;12.10;99.90
21115;DHT22;10715;48.546;9.896;2022-11-15T11:49:53;12.10;99.90
21115;DHT22;10715;48.546;9.896;2022-11-15T11:52:41;12.10;99.90
21115;DHT22;10715;48.546;9.896;2022-11-15T11:55:23;12.20;99.90
21115;DHT22;10715;48.546;9.896;2022-11-15T11:58:16;12.30;99.90
21115;DHT22;10715;48.546;9.896;2022-11-15T12:00:43;12.30;99.90
21115;DHT22;10715;48.546;9.896;2022-11-15T12:03:19;12.40;99.90
21115;DHT22;10715;48.546;9.896;2022-11-15T12:05:54;12.50;99.90
21115;DHT22;10715;48.546;9.896;2022-11-15T12:08:48;12.60;99.90
21115;DHT22;10715;48.546;9.896;2022-11-15T12:11:29;12.60;99.90
21115;DHT22;10715;48.546;9.896;2022-11-15T12:14:01;12.70;99.90
21115;DHT22;10715;48.546;9.896;2022-11-15T12:16:30;12.80;99.90
21115;DHT22;10715;48.546;9.896;2022-11-15T12:19:00;12.90;99.90
21115;DHT22;10715;48.546;9.896;2022-11-15T12:21:58;13.00;99.90
21115;DHT22;10715;48.546;9.896;2022-11-15T12:24:30;13.10;99.90
21115;DHT22;10715;48.546;9.896;2022-11-15T12:27:05;13.10;99.90
21115;DHT22;10715;48.546;9.896;2022-11-15T12:29:48;13.10;99.90
21115;DHT22;10715;48.546;9.896;2022-11-15T12:32:37;13.10;99.90
21115;DHT22;10715;48.546;9.896;2022-11-15T12:35:06;13.10;99.90
21115;DHT22;10715;48.546;9.896;2022-11-15T12:37:48;13.00;99.90
21115;DHT22;10715;48.546;9.896;2022-11-15T12:45:44;13.20;99.90
21115;DHT22;10715;48.546;9.896;2022-11-15T12:53:39;13.30;99.90
21115;DHT22;10715;48.546;9.896;2022-11-15T13:07:05;13.10;99.90
21115;DHT22;10715;48.546;9.896;2022-11-15T13:17:24;12.90;99.90
21115;DHT22;10715;48.546;9.896;2022-11-15T13:22:27;12.90;99.90
21115;DHT22;10715;48.546;9.896;2022-11-15T13:27:57;12.90;99.90
21115;DHT22;10715;48.546;9.896;2022-11-15T13:30:30;12.90;99.90
21115;DHT22;10715;48.546;9.896;2022-11-15T13:33:00;12.90;99.90
21115;DHT22;10715;48.546;9.896;2022-11-15T13:35:32;13.00;99.90
21115;DHT22;10715;48.546;9.896;2022-11-15T13:38:03;13.00;99.90
21115;DHT22;10715;48.546;9.896;2022-11-15T13:40:35;13.00;99.90
21115;DHT22;10715;48.546;9.896;2022-11-15T13:48:35;13.00;99.90
21115;DHT22;10715;48.546;9.896;2022-11-15T13:51:04;13.10;99.90
21115;DHT22;10715;48.546;9.896;2022-11-15T13:53:32;13.10;99.90
21115;DHT22;10715;48.546;9.896;2022-11-15T13:55:59;13.20;99.90
21115;DHT22;10715;48.546;9.896;2022-11-15T13:58:25;13.20;99.90
21115;DHT22;10715;48.546;9.896;2022-11-15T14:01:03;13.10;99.90
21115;DHT22;10715;48.546;9.896;2022-11-15T14:03:32;13.00;99.90
21115;DHT22;10715;48.546;9.896;2022-11-15T14:06:03;12.90;99.90
21115;DHT22;10715;48.546;9.896;2022-11-15T14:08:30;12.80;99.90
21115;DHT22;10715;48.546;9.896;2022-11-15T14:11:17;12.70;99.90
21115;DHT22;10715;48.546;9.896;2022-11-15T14:16:35;12.40;99.90
21115;DHT22;10715;48.546;9.896;2022-11-15T14:19:02;12.30;99.90
21115;DHT22;10715;48.546;9.896;2022-11-15T14:21:28;12.20;99.90
21115;DHT22;10715;48.546;9.896;2022-11-15T14:24:14;12.20;99.90
21115;DHT22;10715;48.546;9.896;2022-11-15T14:26:41;12.10;99.90
21115;DHT22;10715;48.546;9.896;2022-11-15T14:29:24;12.00;99.90
21115;DHT22;10715;48.546;9.896;2022-11-15T14:31:50;12.00;99.90
21115;DHT22;10715;48.546;9.896;2022-11-15T14:34:16;11.80;99.90
21115;DHT22;10715;48.546;9.896;2022-11-15T14:36:42;11.80;99.90
21115;DHT22;10715;48.546;9.896;2022-11-15T14:39:08;11.70;99.90
21115;DHT22;10715;48.546;9.896;2022-11-15T14:41:36;11.70;99.90
21115;DHT22;10715;48.546;9.896;2022-11-15T14:44:05;11.60;99.90
21115;DHT22;10715;48.546;9.896;2022-11-15T14:46:31;11.50;99.90
21115;DHT22;10715;48.546;9.896;2022-11-15T14:48:57;11.40;99.90
21115;DHT22;10715;48.546;9.896;2022-11-15T14:51:23;11.30;99.90
21115;DHT22;10715;48.546;9.896;2022-11-15T14:53:49;11.20;99.90
21115;DHT22;10715;48.546;9.896;2022-11-15T14:56:15;11.10;99.90
21115;DHT22;10715;48.546;9.896;2022-11-15T14:58:44;11.00;99.90
21115;DHT22;10715;48.546;9.896;2022-11-15T15:01:20;10.90;99.90
21115;DHT22;10715;48.546;9.896;2022-11-15T15:03:47;10.80;99.90
21115;DHT22;10715;48.546;9.896;2022-11-15T15:06:12;10.70;99.90
21115;DHT22;10715;48.546;9.896;2022-11-15T15:08:42;10.70;99.90
21115;DHT22;10715;48.546;9.896;2022-11-15T15:11:14;10.60;99.90
21115;DHT22;10715;48.546;9.896;2022-11-15T15:13:41;10.50;99.90
21115;DHT22;10715;48.546;9.896;2022-11-15T15:16:07;10.50;99.90
21115;DHT22;10715;48.546;9.896;2022-11-15T15:18:32;10.40;99.90
21115;DHT22;10715;48.546;9.896;2022-11-15T15:20:59;10.30;99.90
21115;DHT22;10715;48.546;9.896;2022-11-15T15:23:28;10.20;99.90
21115;DHT22;10715;48.546;9.896;2022-11-15T15:25:56;10.10;99.90
21115;DHT22;10715;48.546;9.896;2022-11-15T15:28:22;10.10;99.90
21115;DHT22;10715;48.546;9.896;2022-11-15T15:30:48;10.00;99.90
21115;DHT22;10715;48.546;9.896;2022-11-15T15:33:15;9.90;99.90
21115;DHT22;10715;48.546;9.896;2022-11-15T15:35:41;9.80;99.90
21115;DHT22;10715;48.546;9.896;2022-11-15T15:38:11;9.80;99.90
21115;DHT22;10715;48.546;9.896;2022-11-15T15:40:36;9.80;99.90
21115;DHT22;10715;48.546;9.896;2022-11-15T15:43:02;9.70;99.90
21115;DHT22;10715;48.546;9.896;2022-11-15T15:45:28;9.70;99.90
21115;DHT22;10715;48.546;9.896;2022-11-15T15:47:55;9.60;99.90
21115;DHT22;10715;48.546;9.896;2022-11-15T15:50:25;9.60;99.90
21115;DHT22;10715;48.546;9.896;2022-11-15T15:52:52;9.50;99.90
21115;DHT22;10715;48.546;9.896;2022-11-15T15:55:19;9.50;99.90
21115;DHT22;10715;48.546;9.896;2022-11-15T15:57:45;9.40;99.90
21115;DHT22;10715;48.546;9.896;2022-11-15T16:00:11;9.40;99.90
21115;DHT22;10715;48.546;9.896;2022-11-15T16:02:38;9.40;99.90
21115;DHT22;10715;48.546;9.896;2022-11-15T16:05:04;9.30;99.90
21115;DHT22;10715;48.546;9.896;2022-11-15T16:07:30;9.30;99.90
21115;DHT22;10715;48.546;9.896;2022-11-15T16:09:56;9.20;99.90
21115;DHT22;10715;48.546;9.896;2022-11-15T16:12:35;9.20;99.90
21115;DHT22;10715;48.546;9.896;2022-11-15T16:15:01;9.20;99.90
21115;DHT22;10715;48.546;9.896;2022-11-15T16:17:33;9.10;99.90
21115;DHT22;10715;48.546;9.896;2022-11-15T16:20:00;9.00;99.90
21115;DHT22;10715;48.546;9.896;2022-11-15T16:22:26;9.00;99.90
21115;DHT22;10715;48.546;9.896;2022-11-15T16:24:54;9.00;99.90
21115;DHT22;10715;48.546;9.896;2022-11-15T16:27:20;8.90;99.90
21115;DHT22;10715;48.546;9.896;2022-11-15T16:29:47;8.90;99.90
21115;DHT22;10715;48.546;9.896;2022-11-15T16:32:13;8.90;99.90
21115;DHT22;10715;48.546;9.896;2022-11-15T16:34:39;8.90;99.90
21115;DHT22;10715;48.546;9.896;2022-11-15T16:37:08;8.90;99.90
21115;DHT22;10715;48.546;9.896;2022-11-15T16:39:37;8.90;99.90
21115;DHT22;10715;48.546;9.896;2022-11-15T16:42:03;8.80;99.90
21115;DHT22;10715;48.546;9.896;2022-11-15T16:44:29;8.80;99.90
21115;DHT22;10715;48.546;9.896;2022-11-15T16:46:54;8.70;99.90
21115;DHT22;10715;48.546;9.896;2022-11-15T16:49:20;8.70;99.90
21115;DHT22;10715;48.546;9.896;2022-11-15T16:51:47;8.70;99.90
21115;DHT22;10715;48.546;9.896;2022-11-15T16:54:14;8.60;99.90
21115;DHT22;10715;48.546;9.896;2022-11-15T16:56:40;8.60;99.90
21115;DHT22;10715;48.546;9.896;2022-11-15T16:59:08;8.60;99.90
21115;DHT22;10715;48.546;9.896;2022-11-15T17:01:35;8.60;99.90
21115;DHT22;10715;48.546;9.896;2022-11-15T17:04:03;8.60;99.90
21115;DHT22;10715;48.546;9.896;2022-11-15T17:06:40;8.50;99.90
21115;DHT22;10715;48.546;9.896;2022-11-15T17:09:14;8.50;99.90
21115;DHT22;10715;48.546;9.896;2022-11-15T17:11:41;8.50;99.90
21115;DHT22;10715;48.546;9.896;2022-11-15T17:14:07;8.50;99.90
21115;DHT22;10715;48.546;9.896;2022-11-15T17:16:33;8.40;99.90
21115;DHT22;10715;48.546;9.896;2022-11-15T17:19:03;8.40;99.90
21115;DHT22;10715;48.546;9.896;2022-11-15T17:21:29;8.40;99.90
21115;DHT22;10715;48.546;9.896;2022-11-15T17:23:55;8.30;99.90
21115;DHT22;10715;48.546;9.896;2022-11-15T17:26:21;8.30;99.90
21115;DHT22;10715;48.546;9.896;2022-11-15T17:28:46;8.30;99.90
21115;DHT22;10715;48.546;9.896;2022-11-15T17:31:13;8.30;99.90
21115;DHT22;10715;48.546;9.896;2022-11-15T17:33:39;8.20;99.90
21115;DHT22;10715;48.546;9.896;2022-11-15T17:36:07;8.20;99.90
21115;DHT22;10715;48.546;9.896;2022-11-15T17:38:34;8.20;99.90
21115;DHT22;10715;48.546;9.896;2022-11-15T17:41:04;8.10;99.90
21115;DHT22;10715;48.546;9.896;2022-11-15T17:43:32;8.00;99.90
21115;DHT22;10715;48.546;9.896;2022-11-15T17:45:58;8.00;99.90
21115;DHT22;10715;48.546;9.896;2022-11-15T17:48:25;8.00;99.90
21115;DHT22;10715;48.546;9.896;2022-11-15T17:51:01;7.90;99.90
21115;DHT22;10715;48.546;9.896;2022-11-15T17:53:35;7.90;99.90
21115;DHT22;10715;48.546;9.896;2022-11-15T17:56:10;7.90;99.90
21115;DHT22;10715;48.546;9.896;2022-11-15T17:58:37;7.80;99.90
21115;DHT22;10715;48.546;9.896;2022-11-15T18:01:23;7.80;99.90